Time;durP1;ratioP1;P1;durP2;ratioP2;P2;SDS_P1;SDS_P2;PMS_P1;PMS_P2;Temp;Humidity;BMP_temperature;BMP_pressure;BME280_temperature;BME280_humidity;BME280_pressure;Samples;Min_cycle;Max_cycle;Signal;HPM_P1;HPM_P2
2022/09/19 00:01:39;;;;;;;8.15;4.28;;;10.30;99.90;;;;;;4934534;29;20032;-87
2022/09/19 00:04:06;;;;;;;9.30;4.30;;;10.40;99.90;;;;;;4934621;29;20020;-87
2022/09/19 00:06:37;;;;;;;7.28;3.72;;;12.80;99.90;;;;;;4933180;29;20028;-87
2022/09/19 00:09:05;;;;;;;12.85;5.00;;;10.30;99.90;;;;;;4934510;29;20063;-87
2022/09/19 00:11:32;;;;;;;11.70;4.28;;;8.20;99.90;;;;;;4934275;29;20042;-87
2022/09/19 00:13:59;;;;;;;8.07;4.13;;;10.30;99.90;;;;;;4934594;29;20063;-88
2022/09/19 00:16:26;;;;;;;9.68;3.78;;;;;;;;;;4933001;29;20028;-88
2022/09/19 00:18:53;;;;;;;9.85;4.50;;;10.30;99.90;;;;;;4933374;29;20020;-87
2022/09/19 00:21:24;;;;;;;7.78;4.50;;;10.30;99.90;;;;;;4934109;29;20032;-87
2022/09/19 00:26:35;;;;;;;12.63;4.40;;;;;;;;;;4934191;29;20035;-87
2022/09/19 00:29:02;;;;;;;11.75;4.60;;;;;;;;;;4932890;29;20028;-88
2022/09/19 00:31:28;;;;;;;10.50;4.78;;;;;;;;;;4933899;29;20399;-88
2022/09/19 00:33:54;;;;;;;18.02;5.13;;;10.20;99.90;;;;;;4932649;29;20451;-87
2022/09/19 00:36:20;;;;;;;11.57;5.78;;;;;;;;;;4933845;29;20023;-87
2022/09/19 00:38:46;;;;;;;10.52;4.20;;;;;;;;;;4933546;29;20070;-88
2022/09/19 00:41:20;;;;;;;9.32;4.22;;;10.10;99.90;;;;;;4934781;29;20475;-87
2022/09/19 00:43:59;;;;;;;12.60;4.30;;;10.10;99.90;;;;;;4934926;29;20051;-87
2022/09/19 00:46:27;;;;;;;7.05;4.22;;;10.00;99.90;;;;;;4933687;29;20020;-87
2022/09/19 00:49:04;;;;;;;9.40;4.10;;;10.00;99.90;;;;;;4932443;29;20489;-86
2022/09/19 00:51:47;;;;;;;8.82;4.28;;;10.10;99.90;;;;;;4933542;29;20040;-88
2022/09/19 00:54:18;;;;;;;12.63;3.90;;;10.10;99.90;;;;;;4933164;29;20024;-87
2022/09/19 00:56:56;;;;;;;10.82;4.38;;;10.10;99.90;;;;;;4933195;29;20403;-87
2022/09/19 00:59:25;;;;;;;10.32;4.10;;;8.10;99.90;;;;;;4931835;29;20086;-88
2022/09/19 01:01:54;;;;;;;11.02;4.20;;;9.90;99.90;;;;;;4932539;29;20028;-87
2022/09/19 01:04:25;;;;;;;10.55;3.88;;;9.90;99.90;;;;;;4932191;29;20036;-87
2022/09/19 01:07:08;;;;;;;11.07;4.50;;;14.00;99.90;;;;;;4933643;29;20472;-87
2022/09/19 01:09:52;;;;;;;11.57;4.15;;;9.90;99.90;;;;;;4932149;29;20027;-89
2022/09/19 01:12:31;;;;;;;6.72;4.28;;;13.00;99.90;;;;;;4933405;29;20036;-87
2022/09/19 01:15:09;;;;;;;9.38;4.03;;;13.30;99.90;;;;;;4933700;29;20031;-87
2022/09/19 01:17:45;;;;;;;7.30;4.30;;;12.60;99.90;;;;;;4931902;29;20024;-87
2022/09/19 01:20:14;;;;;;;6.13;4.13;;;9.90;99.90;;;;;;4932119;29;20578;-88
2022/09/19 01:23:15;;;;;;;8.45;4.10;;;10.00;99.90;;;;;;4931916;29;20074;-87
2022/09/19 01:25:46;;;;;;;8.52;3.80;;;12.80;99.90;;;;;;4932967;29;20034;-87
2022/09/19 01:28:26;;;;;;;4.03;3.63;;;10.10;99.90;;;;;;4934065;29;20104;-87
2022/09/19 01:31:27;;;;;;;7.82;4.20;;;10.00;99.90;;;;;;4931668;29;20044;-87
2022/09/19 01:34:11;;;;;;;7.85;3.80;;;9.90;99.90;;;;;;4932056;29;20083;-88
2022/09/19 01:36:46;;;;;;;10.00;4.35;;;7.40;99.90;;;;;;4933406;29;20434;-87
2022/09/19 01:39:17;;;;;;;8.30;4.20;;;9.80;99.90;;;;;;4934443;29;20031;-87
2022/09/19 01:41:53;;;;;;;9.65;4.45;;;9.80;99.90;;;;;;4932748;29;20020;-86
2022/09/19 01:44:22;;;;;;;11.80;4.47;;;9.60;99.90;;;;;;4931936;29;20031;-86
2022/09/19 01:47:11;;;;;;;;;;;9.70;99.90;;;;;;4933132;29;20051;-87
2022/09/19 01:50:10;;;;;;;9.88;4.43;;;5.60;99.90;;;;;;4930192;29;19907;-87
2022/09/19 01:52:36;;;;;;;9.35;3.92;;;;;;;;;;4931751;29;20039;-86
2022/09/19 01:55:40;;;;;;;9.68;4.80;;;9.60;99.90;;;;;;4933032;29;20024;-87
2022/09/19 01:58:18;;;;;;;12.77;4.50;;;6.30;99.90;;;;;;4933035;29;20058;-87
2022/09/19 02:00:53;;;;;;;10.85;4.10;;;9.70;99.90;;;;;;4932732;29;20024;-86
2022/09/19 02:03:23;;;;;;;15.80;4.60;;;9.70;99.90;;;;;;4931482;29;20039;-86
2022/09/19 02:06:06;;;;;;;8.93;3.63;;;9.70;99.90;;;;;;4933088;29;20031;-87
2022/09/19 02:08:59;;;;;;;12.27;4.50;;;9.70;99.90;;;;;;4931607;29;20114;-87
2022/09/19 02:11:27;;;;;;;12.18;4.82;;;;;;;;;;4938146;29;20043;-86
2022/09/19 02:13:58;;;;;;;8.95;4.50;;;9.70;99.90;;;;;;4940272;29;20027;-86
2022/09/19 02:16:30;;;;;;;5.85;4.00;;;8.10;99.90;;;;;;4939512;29;20027;-87
2022/09/19 02:19:18;;;;;;;8.18;5.03;;;12.50;99.90;;;;;;4934431;29;20563;-88
2022/09/19 02:21:50;;;;;;;12.00;5.47;;;9.60;99.90;;;;;;4919301;29;20035;-87
2022/09/19 02:24:21;;;;;;;15.70;5.53;;;9.60;99.90;;;;;;4931923;29;20051;-87
2022/09/19 02:26:52;;;;;;;8.05;5.22;;;9.60;99.90;;;;;;4932786;29;20103;-87
2022/09/19 02:29:24;;;;;;;16.65;5.55;;;9.60;99.90;;;;;;4933284;29;20046;-86
2022/09/19 02:31:51;;;;;;;8.98;5.20;;;9.50;99.90;;;;;;4932970;29;20035;-86
2022/09/19 02:34:17;;;;;;;13.25;5.05;;;;;;;;;;4933435;29;20043;-88
2022/09/19 02:36:52;;;;;;;12.50;4.90;;;9.60;99.90;;;;;;4925373;29;20055;-88
2022/09/19 02:39:21;;;;;;;7.55;4.72;;;9.60;99.90;;;;;;4928575;29;20015;-88
2022/09/19 02:42:17;;;;;;;7.25;4.93;;;9.50;99.90;;;;;;4933096;29;20024;-88
2022/09/19 02:45:02;;;;;;;9.32;4.55;;;9.50;99.90;;;;;;4915597;29;20040;-86
2022/09/19 02:47:49;;;;;;;10.52;4.85;;;7.20;99.90;;;;;;4930615;29;20499;-86
2022/09/19 02:50:47;;;;;;;19.73;4.93;;;9.60;99.90;;;;;;4930812;29;20074;-86
2022/09/19 02:53:24;;;;;;;11.25;5.07;;;9.70;99.90;;;;;;4928244;29;20039;-86
2022/09/19 02:55:55;;;;;;;7.95;4.30;;;9.50;99.90;;;;;;4930969;29;20031;-87
2022/09/19 02:58:23;;;;;;;10.73;5.57;;;9.50;99.90;;;;;;4931432;29;20526;-87
2022/09/19 03:00:53;;;;;;;9.75;5.57;;;9.40;99.90;;;;;;4932042;29;20028;-87
2022/09/19 03:06:30;;;;;;;10.18;5.30;;;9.40;99.90;;;;;;4931851;29;20047;-87
2022/09/19 03:08:58;;;;;;;15.27;5.30;;;9.50;99.90;;;;;;4931837;29;20123;-87
2022/09/19 03:11:27;;;;;;;10.13;5.55;;;9.60;99.90;;;;;;4930524;29;20035;-87
2022/09/19 03:13:58;;;;;;;10.40;5.03;;;9.60;99.90;;;;;;4932624;29;20031;-87
2022/09/19 03:16:34;;;;;;;9.82;4.50;;;9.60;99.90;;;;;;4913061;29;20024;-87
2022/09/19 03:19:10;;;;;;;10.75;4.82;;;9.70;99.90;;;;;;4911789;29;20025;-87
2022/09/19 03:21:37;;;;;;;15.35;5.15;;;9.70;99.90;;;;;;4911817;29;20036;-88
2022/09/19 03:24:05;;;;;;;7.60;5.03;;;9.60;99.90;;;;;;4916119;29;20032;-86
2022/09/19 03:26:34;;;;;;;8.30;4.90;;;9.60;99.90;;;;;;4916642;29;20549;-87
2022/09/19 03:29:02;;;;;;;12.38;4.80;;;9.60;99.90;;;;;;4932836;29;20023;-86
2022/09/19 03:31:28;;;;;;;12.07;5.28;;;13.30;99.90;;;;;;4934040;29;20071;-86
2022/09/19 03:33:56;;;;;;;10.73;5.40;;;9.40;99.90;;;;;;4936118;29;20474;-86
2022/09/19 03:36:24;;;;;;;9.63;5.15;;;9.40;99.90;;;;;;4936376;29;20483;-86
2022/09/19 03:38:50;;;;;;;9.85;5.70;;;9.30;99.90;;;;;;4935105;29;20038;-87
2022/09/19 03:41:19;;;;;;;10.02;5.05;;;9.20;99.90;;;;;;4933402;29;20032;-86
2022/09/19 03:43:45;;;;;;;9.07;5.50;;;;;;;;;;4933341;29;20386;-85
2022/09/19 03:46:13;;;;;;;7.32;5.28;;;9.10;99.90;;;;;;4934103;29;20094;-85
2022/09/19 03:48:40;;;;;;;12.93;5.07;;;7.10;99.90;;;;;;4934241;29;20023;-87
2022/09/19 03:51:06;;;;;;;10.35;5.18;;;9.10;99.90;;;;;;4935650;29;20118;-86
2022/09/19 03:53:33;;;;;;;16.83;5.25;;;;;;;;;;4933720;29;20025;-89
2022/09/19 03:55:59;;;;;;;11.65;5.28;;;;;;;;;;4934503;29;20046;-87
2022/09/19 03:58:26;;;;;;;13.40;5.65;;;;;;;;;;4915640;29;20031;-86
2022/09/19 04:00:53;;;;;;;16.05;5.43;;;;;;;;;;4916507;29;20536;-86
2022/09/19 04:03:23;;;;;;;9.80;5.55;;;;;;;;;;4915738;29;20024;-86
2022/09/19 04:05:50;;;;;;;14.80;5.05;;;;;;;;;;4916122;29;20035;-89
2022/09/19 04:08:16;;;;;;;11.63;5.65;;;;;;;;;;4916280;29;20222;-86
2022/09/19 04:10:42;;;;;;;14.30;5.75;;;;;;;;;;4929631;29;20039;-87
2022/09/19 04:13:10;;;;;;;8.93;4.97;;;9.30;99.90;;;;;;4931643;29;20530;-87
2022/09/19 04:15:37;;;;;;;10.70;5.05;;;12.90;99.90;;;;;;4924717;29;20483;-91
2022/09/19 04:18:03;;;;;;;9.50;5.35;;;;;;;;;;4934559;29;20023;-89
2022/09/19 04:20:30;;;;;;;12.18;6.03;;;;;;;;;;4920958;29;20035;-88
2022/09/19 04:23:00;;;;;;;9.80;5.25;;;9.20;99.90;;;;;;4916342;29;20059;-87
2022/09/19 04:25:29;;;;;;;9.27;5.20;;;9.20;99.90;;;;;;4931389;29;20028;-87
2022/09/19 04:27:56;;;;;;;9.93;5.40;;;;;;;;;;4935520;29;20159;-87
2022/09/19 04:30:24;;;;;;;14.60;5.90;;;6.90;99.90;;;;;;4925065;29;20040;-87
2022/09/19 04:32:50;;;;;;;10.60;5.63;;;9.10;99.90;;;;;;4923655;29;20050;-88
2022/09/19 04:35:17;;;;;;;13.38;6.07;;;;;;;;;;4922171;29;20407;-87
2022/09/19 04:37:43;;;;;;;13.35;6.30;;;;;;;;;;4929401;29;20030;-87
2022/09/19 04:40:09;;;;;;;11.85;5.40;;;6.40;99.90;;;;;;4928871;29;20028;-87
2022/09/19 04:42:35;;;;;;;12.05;5.88;;;;;;;;;;4931700;29;20400;-87
2022/09/19 04:45:02;;;;;;;14.68;5.78;;;;;;;;;;4933886;29;20521;-88
2022/09/19 04:47:28;;;;;;;7.60;5.25;;;7.50;99.90;;;;;;4934887;29;20028;-86
2022/09/19 04:49:56;;;;;;;12.05;5.65;;;;;;;;;;4940286;29;20083;-88
2022/09/19 04:52:24;;;;;;;9.82;5.53;;;;;;;;;;4942595;29;20130;-87
2022/09/19 04:54:52;;;;;;;8.68;5.90;;;;;;;;;;4940564;29;20024;-88
2022/09/19 04:57:17;;;;;;;12.90;6.00;;;11.90;99.90;;;;;;4938744;29;20024;-88
2022/09/19 04:59:43;;;;;;;9.25;5.78;;;5.80;99.90;;;;;;4934160;29;20034;-89
2022/09/19 05:02:10;;;;;;;8.48;5.65;;;;;;;;;;4934757;29;20563;-87
2022/09/19 05:04:38;;;;;;;10.25;5.57;;;7.60;99.90;;;;;;4933239;29;20028;-89
2022/09/19 05:07:04;;;;;;;10.35;6.25;;;;;;;;;;4933268;29;20059;-87
2022/09/19 05:09:30;;;;;;;11.27;6.07;;;;;;;;;;4934095;29;20680;-86
2022/09/19 05:11:56;;;;;;;11.27;5.80;;;;;;;;;;4933188;29;20072;-88
2022/09/19 05:14:25;;;;;;;10.45;6.55;;;8.90;99.90;;;;;;4933124;29;20024;-87
2022/09/19 05:16:51;;;;;;;11.13;6.85;;;;;;;;;;4934571;29;20028;-87
2022/09/19 05:19:21;;;;;;;11.40;6.25;;;11.10;99.90;;;;;;4933218;29;20075;-87
2022/09/19 05:21:47;;;;;;;12.43;6.40;;;;;;;;;;4934239;29;20028;-87
2022/09/19 05:24:15;;;;;;;9.38;6.05;;;;;;;;;;4933462;29;20034;-90
2022/09/19 05:26:41;;;;;;;14.57;6.00;;;;;;;;;;4933676;29;20034;-90
2022/09/19 05:29:08;;;;;;;14.70;6.40;;;;;;;;;;4929191;29;20024;-91
2022/09/19 05:31:35;;;;;;;13.27;5.63;;;;;;;;;;4934929;29;20031;-90
2022/09/19 05:34:02;;;;;;;10.57;6.03;;;8.80;99.90;;;;;;4933735;29;20067;-86
2022/09/19 05:36:30;;;;;;;10.85;5.22;;;;;;;;;;4933765;29;20183;-90
2022/09/19 05:38:57;;;;;;;7.85;5.38;;;;;;;;;;4934362;29;20167;-91
2022/09/19 05:41:23;;;;;;;9.07;5.38;;;;;;;;;;4933592;29;20036;-91
2022/09/19 05:43:50;;;;;;;10.48;5.78;;;4.70;99.90;;;;;;4933133;29;20424;-91
2022/09/19 05:46:16;;;;;;;15.75;6.25;;;;;;;;;;4933174;29;20035;-91
2022/09/19 05:48:42;;;;;;;10.25;5.63;;;;;;;;;;4933981;29;20078;-92
2022/09/19 05:51:08;;;;;;;13.70;6.25;;;;;;;;;;4933079;29;20039;-92
2022/09/19 05:53:52;;;;;;;8.18;5.38;;;;;;;;;;4931000;29;20036;-92
2022/09/19 05:56:19;;;;;;;16.52;6.35;;;;;;;;;;4932826;29;20024;-90
2022/09/19 05:58:45;;;;;;;11.90;6.63;;;;;;;;;;4932757;29;20028;-91
2022/09/19 06:01:12;;;;;;;12.85;7.07;;;5.40;99.90;;;;;;4932625;29;20131;-94
2022/09/19 06:03:39;;;;;;;12.67;7.10;;;11.00;99.90;;;;;;4933984;29;20052;-91
2022/09/19 06:06:18;;;;;;;19.55;7.22;;;8.50;99.90;;;;;;4933799;29;20090;-92
2022/09/19 06:08:45;;;;;;;13.88;7.22;;;8.50;99.90;;;;;;4932374;29;20122;-92
2022/09/19 06:11:11;;;;;;;9.63;6.18;;;;;;;;;;4931908;29;20403;-91
2022/09/19 06:16:22;;;;;;;18.10;6.93;;;;;;;;;;4931989;29;20506;-92
2022/09/19 06:18:49;;;;;;;10.00;6.55;;;;;;;;;;4931719;29;20064;-92
2022/09/19 06:21:15;;;;;;;13.90;7.68;;;;;;;;;;4931734;29;20040;-92
2022/09/19 06:23:41;;;;;;;15.40;7.45;;;8.70;99.90;;;;;;4930588;29;20028;-93
2022/09/19 06:26:07;;;;;;;12.77;8.00;;;;;;;;;;4932513;29;20027;-93
2022/09/19 06:28:33;;;;;;;19.95;7.80;;;8.60;99.90;;;;;;4933018;29;20019;-88
2022/09/19 06:31:03;;;;;;;16.95;6.65;;;8.70;99.90;;;;;;4934248;29;20099;-92
2022/09/19 06:33:30;;;;;;;15.27;7.90;;;8.80;99.90;;;;;;4932838;29;20044;-92
2022/09/19 06:35:58;;;;;;;16.85;7.60;;;8.90;99.90;;;;;;4933420;29;20431;-92
2022/09/19 06:38:24;;;;;;;12.00;7.75;;;5.10;99.90;;;;;;4932180;29;20238;-92
2022/09/19 06:40:51;;;;;;;16.90;7.88;;;;;;;;;;4930923;29;20042;-92
2022/09/19 06:43:18;;;;;;;9.90;6.47;;;;;;;;;;4933395;29;20026;-91
2022/09/19 06:45:44;;;;;;;18.08;7.65;;;;;;;;;;4933203;29;20091;-91
2022/09/19 06:48:10;;;;;;;16.98;6.95;;;;;;;;;;4931898;29;20030;-93
2022/09/19 06:50:37;;;;;;;14.30;6.85;;;;;;;;;;4931955;29;20095;-93
2022/09/19 06:53:03;;;;;;;14.02;6.93;;;;;;;;;;4932839;29;20465;-92
2022/09/19 06:55:30;;;;;;;12.93;7.00;;;9.80;99.90;;;;;;4931385;29;20525;-90
2022/09/19 06:57:58;;;;;;;12.98;7.47;;;9.90;99.90;;;;;;4931852;29;20028;-92
2022/09/19 07:00:25;;;;;;;15.45;6.95;;;10.00;99.90;;;;;;4933536;29;20031;-91
2022/09/19 07:03:14;;;;;;;14.95;6.85;;;10.20;99.90;;;;;;4933287;29;20024;-92
2022/09/19 07:05:42;;;;;;;18.77;6.18;;;10.30;99.90;;;;;;4931188;29;20393;-92
2022/09/19 07:08:09;;;;;;;11.48;6.40;;;13.90;99.90;;;;;;4932219;29;20027;-93
2022/09/19 07:10:36;;;;;;;14.98;6.22;;;10.50;99.90;;;;;;4932823;29;20036;-93
2022/09/19 07:13:04;;;;;;;12.85;6.40;;;10.70;99.90;;;;;;4932838;29;20385;-91
2022/09/19 07:15:32;;;;;;;9.17;5.93;;;10.80;99.90;;;;;;4933494;29;20443;-92
2022/09/19 07:17:58;;;;;;;;;;;10.80;99.90;;;;;;4932880;29;20038;-91
2022/09/19 07:20:25;;;;;;;9.45;5.90;;;11.90;99.90;;;;;;4931933;29;19906;-91
2022/09/19 07:23:18;;;;;;;10.03;5.80;;;9.20;99.90;;;;;;4933684;29;20027;-92
2022/09/19 07:25:45;;;;;;;8.30;5.60;;;;;;;;;;4931859;29;20043;-90
2022/09/19 07:28:13;;;;;;;8.35;5.70;;;11.70;99.90;;;;;;4941461;29;20064;-88
2022/09/19 07:30:39;;;;;;;;;;;11.60;99.90;;;;;;4951985;29;20039;-86
2022/09/19 07:33:09;;;;;;;11.32;5.72;;;11.90;99.90;;;;;;4950585;29;19915;-88
2022/09/19 07:35:37;;;;;;;13.00;5.55;;;12.00;99.90;;;;;;4942159;29;20051;-91
2022/09/19 07:38:04;;;;;;;13.68;5.45;;;12.00;99.90;;;;;;4932159;29;20028;-93
2022/09/19 07:40:32;;;;;;;7.53;5.30;;;12.30;99.90;;;;;;4933319;29;20059;-91
2022/09/19 07:43:01;;;;;;;12.10;5.00;;;12.30;99.90;;;;;;4933253;29;20034;-89
2022/09/19 07:45:27;;;;;;;12.07;5.82;;;;;;;;;;4933242;29;20488;-91
2022/09/19 07:47:55;;;;;;;14.57;5.45;;;;;;;;;;4932188;29;20115;-91
2022/09/19 07:50:21;;;;;;;12.37;5.07;;;12.70;99.90;;;;;;4932166;29;20480;-89
2022/09/19 07:52:47;;;;;;;7.72;4.30;;;;;;;;;;4931029;29;20064;-89
2022/09/19 07:55:14;;;;;;;10.05;4.78;;;13.00;99.90;;;;;;4932847;29;20488;-91
2022/09/19 07:57:50;;;;;;;7.70;4.18;;;13.40;99.90;;;;;;4932761;29;20107;-90
2022/09/19 08:00:16;;;;;;;8.60;4.05;;;13.30;99.90;;;;;;4931332;29;20030;-90
2022/09/19 08:02:43;;;;;;;18.02;4.35;;;;;;;;;;4932661;29;20034;-90
2022/09/19 08:05:09;;;;;;;6.68;3.63;;;13.70;99.90;;;;;;4932110;29;20015;-90
2022/09/19 08:07:35;;;;;;;8.30;3.53;;;;;;;;;;4933330;29;20035;-90
2022/09/19 08:10:02;;;;;;;10.20;3.92;;;;;;;;;;4932253;29;20023;-90
2022/09/19 08:12:30;;;;;;;6.90;3.28;;;;;;;;;;4933635;29;20041;-90
2022/09/19 08:14:56;;;;;;;11.35;3.95;;;14.20;99.90;;;;;;4934917;29;20031;-93
2022/09/19 08:17:21;;;;;;;12.20;3.60;;;14.40;99.90;;;;;;4936095;29;20032;-91
2022/09/19 08:19:47;;;;;;;10.63;3.08;;;;;;;;;;4934946;29;20078;-90
2022/09/19 08:22:14;;;;;;;8.00;3.05;;;;;;;;;;4935834;29;20073;-91
2022/09/19 08:24:40;;;;;;;6.95;3.20;;;;;;;;;;4936475;29;20024;-88
2022/09/19 08:27:06;;;;;;;10.38;3.90;;;;;;;;;;4935413;29;20042;-90
2022/09/19 08:29:32;;;;;;;6.90;3.10;;;;;;;;;;4935039;29;20368;-91
2022/09/19 08:32:00;;;;;;;5.65;3.10;;;14.70;99.90;;;;;;4935349;29;20040;-91
2022/09/19 08:34:26;;;;;;;6.43;3.10;;;14.90;99.90;;;;;;4935670;29;20024;-91
2022/09/19 08:36:53;;;;;;;8.38;3.42;;;14.80;99.90;;;;;;4933455;29;20346;-90
2022/09/19 08:39:19;;;;;;;12.10;4.30;;;;;;;;;;4934121;29;20028;-92
2022/09/19 08:42:19;;;;;;;8.70;3.13;;;15.10;99.90;;;;;;4934463;29;20039;-91
2022/09/19 08:44:57;;;;;;;4.78;3.17;;;15.20;99.90;;;;;;4932080;29;20118;-90
2022/09/19 08:47:26;;;;;;;8.50;3.45;;;15.40;99.90;;;;;;4934252;29;20036;-91
2022/09/19 08:49:57;;;;;;;9.15;3.10;;;15.40;99.90;;;;;;4935313;29;20020;-90
2022/09/19 08:52:46;;;;;;;13.75;3.20;;;15.40;99.90;;;;;;4935277;29;20098;-90
2022/09/19 08:55:18;;;;;;;10.52;3.63;;;15.50;99.90;;;;;;4935432;29;20052;-87
2022/09/19 08:58:07;;;;;;;8.73;3.60;;;15.50;99.90;;;;;;4934276;29;20103;-91
2022/09/19 09:00:39;;;;;;;10.40;3.67;;;15.60;99.90;;;;;;4935284;29;20036;-91
2022/09/19 09:03:07;;;;;;;10.23;4.00;;;15.60;99.90;;;;;;4935422;29;20031;-89
2022/09/19 09:06:12;;;;;;;12.02;4.07;;;15.60;99.90;;;;;;4932734;29;20032;-91
2022/09/19 09:09:45;;;;;;;7.20;3.50;;;15.70;99.90;;;;;;4935544;29;20042;-90
2022/09/19 09:12:35;;;;;;;8.52;3.30;;;14.20;99.90;;;;;;4896280;29;20048;-90
2022/09/19 09:15:17;;;;;;;15.45;3.22;;;16.00;99.90;;;;;;4879590;29;20024;-91
2022/09/19 09:17:51;;;;;;;13.60;3.53;;;16.20;99.90;;;;;;4924573;29;20050;-87
2022/09/19 09:20:28;;;;;;;8.23;3.38;;;16.30;99.90;;;;;;4934501;29;20031;-91
2022/09/19 09:23:04;;;;;;;7.63;4.00;;;16.30;99.90;;;;;;4933787;29;20038;-93
2022/09/19 09:25:32;;;;;;;12.85;3.85;;;16.30;99.90;;;;;;4933479;29;20015;-90
2022/09/19 09:28:14;;;;;;;4.53;3.53;;;16.20;99.90;;;;;;4933531;29;20495;-91
2022/09/19 09:30:45;;;;;;;12.60;3.72;;;16.40;99.90;;;;;;4933495;29;20160;-90
2022/09/19 09:33:30;;;;;;;8.35;3.80;;;16.40;99.90;;;;;;4935297;29;20044;-92
2022/09/19 09:36:04;;;;;;;12.93;3.83;;;16.50;99.90;;;;;;4933230;29;20031;-91
2022/09/19 09:38:40;;;;;;;8.25;3.65;;;16.40;99.90;;;;;;4934545;29;20027;-90
2022/09/19 09:41:45;;;;;;;7.75;3.50;;;16.60;99.90;;;;;;4932036;29;20396;-91
2022/09/19 09:44:13;;;;;;;7.47;3.63;;;16.40;99.90;;;;;;4933766;29;20036;-90
2022/09/19 09:47:16;;;;;;;11.40;2.88;;;16.50;99.90;;;;;;4933901;29;20400;-91
2022/09/19 09:49:42;;;;;;;4.75;3.28;;;;;;;;;;4934895;29;20436;-92
2022/09/19 09:52:35;;;;;;;3.72;2.60;;;16.80;99.90;;;;;;4934138;29;20040;-91
2022/09/19 09:58:39;;;;;;;4.15;2.58;;;16.90;99.90;;;;;;4934105;29;20106;-89
2022/09/19 10:05:03;;;;;;;6.32;2.70;;;17.10;99.90;;;;;;4934509;29;20155;-91
2022/09/19 10:07:50;;;;;;;6.82;3.47;;;17.00;99.90;;;;;;4940818;29;20108;-87
2022/09/19 10:10:19;;;;;;;6.50;2.90;;;16.90;99.90;;;;;;4954572;29;20032;-86
2022/09/19 10:12:58;;;;;;;6.47;2.58;;;17.10;99.90;;;;;;4958534;29;20012;-87
2022/09/19 10:15:25;;;;;;;7.32;3.38;;;17.40;99.90;;;;;;4942023;29;20024;-91
2022/09/19 10:18:09;;;;;;;5.65;2.92;;;17.30;99.90;;;;;;4934423;29;20031;-92
2022/09/19 10:20:44;;;;;;;8.18;3.60;;;17.50;99.90;;;;;;4933174;29;20401;-92
2022/09/19 10:23:14;;;;;;;10.75;3.17;;;17.50;99.90;;;;;;4933694;29;20020;-90
2022/09/19 10:25:41;;;;;;;10.63;3.67;;;;;;;;;;4932514;29;20042;-91
2022/09/19 10:28:27;;;;;;;4.72;2.60;;;17.70;99.90;;;;;;4933928;29;20610;-92
2022/09/19 10:31:01;;;;;;;7.97;2.97;;;17.70;99.90;;;;;;4932238;29;20036;-91
2022/09/19 10:33:38;;;;;;;8.30;2.42;;;17.70;99.90;;;;;;4931127;29;20050;-91
2022/09/19 10:36:07;;;;;;;4.53;2.67;;;17.60;99.90;;;;;;4932445;29;20051;-91
2022/09/19 10:38:48;;;;;;;10.70;2.35;;;21.30;99.90;;;;;;4931430;29;20043;-91
2022/09/19 10:41:17;;;;;;;4.25;2.72;;;;;;;;;;4932114;29;20090;-92
2022/09/19 10:43:54;;;;;;;5.53;2.72;;;17.80;99.90;;;;;;4932500;29;20051;-91
2022/09/19 10:46:25;;;;;;;6.10;2.30;;;17.90;99.90;;;;;;4933448;29;20106;-91
2022/09/19 10:48:56;;;;;;;8.43;2.50;;;17.90;99.90;;;;;;4932024;29;20039;-92
2022/09/19 10:51:28;;;;;;;4.72;2.28;;;18.10;99.90;;;;;;4932179;29;20036;-92
2022/09/19 10:53:56;;;;;;;5.53;2.25;;;18.00;99.90;;;;;;4932342;29;20055;-89
2022/09/19 10:56:26;;;;;;;4.70;2.90;;;18.30;99.90;;;;;;4933252;29;20035;-91
2022/09/19 10:59:12;;;;;;;6.25;2.42;;;18.30;99.90;;;;;;4933197;29;20436;-91
2022/09/19 11:01:39;;;;;;;5.10;2.22;;;18.30;99.90;;;;;;4923541;29;20070;-89
2022/09/19 11:04:22;;;;;;;7.00;2.40;;;18.40;99.90;;;;;;4930644;29;20023;-91
2022/09/19 11:06:58;;;;;;;6.50;2.55;;;18.20;99.90;;;;;;4923137;29;20513;-86
2022/09/19 11:09:31;;;;;;;5.57;2.58;;;18.30;99.90;;;;;;4933373;29;20034;-92
2022/09/19 11:12:23;;;;;;;4.93;2.05;;;18.30;99.90;;;;;;4933389;29;20031;-91
2022/09/19 11:14:50;;;;;;;5.05;2.10;;;18.30;99.90;;;;;;4911063;29;20032;-89
2022/09/19 11:17:46;;;;;;;2.88;2.00;;;18.10;99.90;;;;;;4933286;29;20035;-90
2022/09/19 11:20:31;;;;;;;3.72;2.10;;;18.30;99.90;;;;;;4933638;29;20039;-90
2022/09/19 11:23:28;;;;;;;4.32;1.83;;;18.40;99.90;;;;;;4932246;29;20027;-90
2022/09/19 11:26:03;;;;;;;7.05;2.10;;;18.40;99.90;;;;;;4932302;29;20067;-92
2022/09/19 11:28:29;;;;;;;7.43;2.25;;;;;;;;;;4932021;29;20027;-90
2022/09/19 11:31:37;;;;;;;2.30;2.10;;;18.40;99.90;;;;;;4931231;29;20031;-92
2022/09/19 11:34:23;;;;;;;2.60;2.00;;;18.30;99.90;;;;;;4905099;29;20044;-91
2022/09/19 11:37:13;;;;;;;3.25;2.45;;;18.50;99.90;;;;;;4932755;29;20054;-90
2022/09/19 11:40:01;;;;;;;4.32;2.03;;;18.40;99.90;;;;;;4932928;29;20031;-90
2022/09/19 11:42:58;;;;;;;5.03;1.95;;;18.40;99.90;;;;;;4932824;29;20031;-91
2022/09/19 11:45:30;;;;;;;6.20;2.15;;;18.50;99.90;;;;;;4904453;29;20036;-92
2022/09/19 11:48:37;;;;;;;3.53;1.80;;;18.50;99.90;;;;;;4934387;29;20551;-91
2022/09/19 11:51:28;;;;;;;3.80;1.80;;;18.30;99.90;;;;;;4935240;29;20039;-93
2022/09/19 11:54:17;;;;;;;3.35;1.60;;;18.20;99.90;;;;;;4935595;29;20539;-91
2022/09/19 11:56:44;;;;;;;4.18;1.60;;;;;;;;;;4936680;29;20030;-90
2022/09/19 11:59:25;;;;;;;3.95;1.52;;;18.40;99.90;;;;;;4935571;29;20027;-92
2022/09/19 12:02:30;;;;;;;3.28;1.70;;;18.70;99.90;;;;;;4937152;29;20119;-87
2022/09/19 12:05:19;;;;;;;2.05;1.48;;;18.70;99.90;;;;;;4936382;29;20023;-93
2022/09/19 12:07:47;;;;;;;3.40;1.80;;;;;;;;;;4935148;29;20094;-91
2022/09/19 12:10:24;;;;;;;2.80;1.97;;;19.20;99.90;;;;;;4935236;29;20032;-90
2022/09/19 12:13:15;;;;;;;4.68;1.77;;;19.30;99.90;;;;;;4934993;29;20044;-92
2022/09/19 12:15:46;;;;;;;3.60;1.60;;;19.20;99.90;;;;;;4935531;29;20062;-90
2022/09/19 12:18:26;;;;;;;2.75;1.60;;;19.20;99.90;;;;;;4936271;29;20439;-91
2022/09/19 12:21:04;;;;;;;2.25;1.70;;;19.20;99.90;;;;;;4936615;29;20106;-88
2022/09/19 12:26:46;;;;;;;7.90;1.80;;;19.20;99.90;;;;;;4931465;29;20038;-90
2022/09/19 12:29:32;;;;;;;3.13;1.45;;;19.20;99.90;;;;;;4936068;29;20043;-92
2022/09/19 12:32:22;;;;;;;1.50;1.40;;;19.10;99.90;;;;;;4934810;29;20044;-92
2022/09/19 12:35:07;;;;;;;3.88;1.67;;;18.90;99.90;;;;;;4904725;29;20047;-91
2022/09/19 12:38:01;;;;;;;3.13;1.70;;;18.80;99.90;;;;;;4934714;29;20039;-93
2022/09/19 12:40:44;;;;;;;2.75;1.70;;;18.90;99.90;;;;;;4932270;29;20073;-91
2022/09/19 12:43:38;;;;;;;1.92;1.75;;;19.00;99.90;;;;;;4936027;29;20024;-94
2022/09/19 12:46:26;;;;;;;4.72;1.70;;;19.00;99.90;;;;;;4936884;29;20118;-92
2022/09/19 12:49:03;;;;;;;1.40;1.30;;;19.30;99.90;;;;;;4955173;29;20023;-87
2022/09/19 12:51:59;;;;;;;4.03;1.57;;;19.40;99.90;;;;;;4955576;29;20028;-87
2022/09/19 12:54:36;;;;;;;2.53;1.58;;;19.70;99.90;;;;;;4950165;29;20027;-89
2022/09/19 12:57:09;;;;;;;5.68;1.60;;;17.60;99.90;;;;;;4938328;29;20035;-93
2022/09/19 12:59:36;;;;;;;1.52;1.30;;;;;;;;;;4933783;29;20050;-92
2022/09/19 13:02:20;;;;;;;2.60;1.63;;;19.50;99.90;;;;;;4935317;29;20058;-91
2022/09/19 13:05:12;;;;;;;4.20;1.40;;;19.70;99.90;;;;;;4931590;29;20044;-93
2022/09/19 13:07:45;;;;;;;2.42;1.60;;;19.60;99.90;;;;;;4935659;29;20114;-92
2022/09/19 13:10:37;;;;;;;1.77;1.60;;;19.50;99.90;;;;;;4934222;29;20059;-89
2022/09/19 13:13:03;;;;;;;3.70;1.63;;;;;;;;;;4931828;29;20054;-91
2022/09/19 13:15:49;;;;;;;1.33;1.23;;;19.10;99.90;;;;;;4934444;29;20051;-92
2022/09/19 13:23:52;;;;;;;6.10;1.85;;;19.10;99.90;;;;;;4934196;29;20579;-91
2022/09/19 13:26:38;;;;;;;2.53;1.58;;;19.40;99.90;;;;;;4934087;29;20035;-92
2022/09/19 13:29:28;;;;;;;3.08;1.55;;;19.50;99.90;;;;;;4934928;29;20128;-90
2022/09/19 13:31:57;;;;;;;3.60;1.70;;;17.20;99.90;;;;;;4935426;29;20028;-90
2022/09/19 13:35:00;;;;;;;3.63;1.45;;;19.80;99.90;;;;;;4934007;29;20040;-91
2022/09/19 13:37:34;;;;;;;2.53;1.60;;;19.80;99.90;;;;;;4935662;29;20059;-90
2022/09/19 13:40:39;;;;;;;2.35;1.25;;;19.90;99.90;;;;;;4933626;29;20388;-92
2022/09/19 13:43:16;;;;;;;1.70;1.50;;;20.10;99.90;;;;;;4932409;29;20078;-90
2022/09/19 13:45:55;;;;;;;2.17;1.57;;;20.10;99.90;;;;;;4934262;29;20476;-90
2022/09/19 13:48:36;;;;;;;1.88;1.65;;;20.20;99.90;;;;;;4932799;29;20279;-92
2022/09/19 13:51:10;;;;;;;2.33;1.60;;;19.90;99.90;;;;;;4932721;29;20035;-91
2022/09/19 13:53:42;;;;;;;3.38;1.48;;;19.60;99.90;;;;;;4934360;29;20039;-91
2022/09/19 13:56:24;;;;;;;3.08;1.60;;;;;;;;;;4934187;29;20025;-92
2022/09/19 13:59:13;;;;;;;3.92;1.70;;;19.50;99.90;;;;;;4933026;29;20035;-92
2022/09/19 14:01:41;;;;;;;2.65;1.60;;;19.80;99.90;;;;;;4934001;29;20023;-91
2022/09/19 14:07:03;;;;;;;3.42;1.60;;;20.00;99.90;;;;;;4932435;29;20536;-93
2022/09/19 14:09:43;;;;;;;1.77;1.55;;;20.00;99.90;;;;;;4932179;29;20039;-89
2022/09/19 14:12:43;;;;;;;2.72;1.60;;;20.00;99.90;;;;;;4933805;29;20448;-92
2022/09/19 14:15:29;;;;;;;4.15;1.73;;;19.60;99.90;;;;;;4932680;29;20031;-92
2022/09/19 14:18:10;;;;;;;7.88;1.63;;;19.50;99.90;;;;;;4933490;29;20034;-93